Time;durP1;ratioP1;P1;durP2;ratioP2;P2;SDS_P1;SDS_P2;PMS_P1;PMS_P2;Temp;Humidity;BMP_temperature;BMP_pressure;BME280_temperature;BME280_humidity;BME280_pressure;Samples;Min_cycle;Max_cycle;Signal;HPM_P1;HPM_P2
2022/03/25 00:02:07;;;;;;;33.17;11.98;;;;;;;;;;4931288;28;20334;-64
2022/03/25 00:04:33;;;;;;;22.55;10.52;;;;;;;;;;4932232;28;20423;-64
2022/03/25 00:06:58;;;;;;;32.17;11.63;;;;;;;;;;4930917;28;20133;-64
2022/03/25 00:09:24;;;;;;;31.23;12.52;;;;;;;;;;4930894;28;20056;-64
2022/03/25 00:11:49;;;;;;;31.83;12.60;;;;;;;;;;4931234;28;20438;-64
2022/03/25 00:14:14;;;;;;;23.98;10.98;;;;;;;;;;4931416;28;20468;-64
2022/03/25 00:16:41;;;;;;;25.55;10.80;;;;;;;;;;4930750;28;20509;-64
2022/03/25 00:19:06;;;;;;;30.15;11.48;;;;;;;;;;4931456;28;20325;-65
2022/03/25 00:21:31;;;;;;;27.60;12.25;;;;;;;;;;4930985;28;20341;-64
2022/03/25 00:23:57;;;;;;;35.22;12.00;;;;;;;;;;4930739;28;20326;-64
2022/03/25 00:26:22;;;;;;;25.08;10.13;;;;;;;;;;4931157;28;20049;-64
2022/03/25 00:28:47;;;;;;;34.50;12.27;;;;;;;;;;4930595;28;20034;-64
2022/03/25 00:31:13;;;;;;;28.08;10.98;;;;;;;;;;4930852;28;20113;-64
2022/03/25 00:33:39;;;;;;;31.40;11.35;;;;;;;;;;4931042;28;20497;-64
2022/03/25 00:36:05;;;;;;;29.15;10.65;;;;;;;;;;4930870;28;20097;-64
2022/03/25 00:38:30;;;;;;;30.08;11.45;;;;;;;;;;4929067;28;20458;-65
2022/03/25 00:40:56;;;;;;;27.65;11.43;;;;;;;;;;4930536;28;20042;-65
2022/03/25 00:43:22;;;;;;;31.30;11.50;;;;;;;;;;4932092;28;20485;-64
2022/03/25 00:45:47;;;;;;;25.95;10.75;;;;;;;;;;4930669;28;20096;-63
2022/03/25 00:48:14;;;;;;;24.77;10.57;;;;;;;;;;4930309;28;20438;-64
2022/03/25 00:50:40;;;;;;;30.05;11.77;;;;;;;;;;4930851;28;20351;-64
2022/03/25 00:53:06;;;;;;;29.25;11.25;;;;;;;;;;4930578;28;20334;-64
2022/03/25 00:55:31;;;;;;;23.10;11.48;;;;;;;;;;4931389;28;20351;-64
2022/03/25 00:57:58;;;;;;;24.30;10.45;;;;;;;;;;4934542;28;20082;-64
2022/03/25 01:00:24;;;;;;;26.55;11.57;;;;;;;;;;4933872;28;20109;-64
2022/03/25 01:02:49;;;;;;;26.45;10.73;;;;;;;;;;4943605;28;20022;-64
2022/03/25 01:05:15;;;;;;;23.92;11.07;;;;;;;;;;4934371;28;20465;-64
2022/03/25 01:07:40;;;;;;;29.30;12.40;;;;;;;;;;4935674;28;20026;-64
2022/03/25 01:10:06;;;;;;;32.03;11.60;;;;;;;;;;4934163;28;20321;-65
2022/03/25 01:12:31;;;;;;;27.77;11.13;;;;;;;;;;4932842;28;20509;-64
2022/03/25 01:14:56;;;;;;;21.88;9.50;;;;;;;;;;4934255;28;20327;-64
2022/03/25 01:17:22;;;;;;;25.75;10.43;;;;;;;;;;4934180;28;20410;-65
2022/03/25 01:19:47;;;;;;;33.15;11.32;;;;;;;;;;4934122;28;20449;-65
2022/03/25 01:22:13;;;;;;;21.75;10.40;;;;;;;;;;4933943;28;20414;-65
2022/03/25 01:24:39;;;;;;;29.17;10.77;;;;;;;;;;4933813;28;20057;-64
2022/03/25 01:27:04;;;;;;;27.10;10.70;;;;;;;;;;4935724;28;20030;-64
2022/03/25 01:29:29;;;;;;;21.52;10.07;;;;;;;;;;4934552;28;20057;-65
2022/03/25 01:31:55;;;;;;;23.55;10.10;;;;;;;;;;4934059;28;20026;-65
2022/03/25 01:34:21;;;;;;;23.75;10.52;;;;;;;;;;4934484;28;20027;-64
2022/03/25 01:36:46;;;;;;;26.08;11.90;;;;;;;;;;4933680;28;20369;-65
2022/03/25 01:39:12;;;;;;;25.50;10.90;;;;;;;;;;4933126;28;20449;-64
2022/03/25 01:41:38;;;;;;;23.50;10.45;;;;;;;;;;4935152;28;20445;-64
2022/03/25 01:44:04;;;;;;;27.80;11.48;;;;;;;;;;4933517;28;20496;-64
2022/03/25 01:46:30;;;;;;;24.23;10.43;;;;;;;;;;4933585;28;20362;-64
2022/03/25 01:48:56;;;;;;;27.75;10.45;;;;;;;;;;4933494;28;20405;-64
2022/03/25 01:51:27;;;;;;;29.38;10.05;;;;;;;;;;4933565;28;20426;-64
2022/03/25 01:53:52;;;;;;;25.23;9.90;;;;;;;;;;4933442;28;20049;-64
2022/03/25 01:56:22;;;;;;;20.55;9.88;;;;;;;;;;4933295;28;20053;-64
2022/03/25 01:58:48;;;;;;;23.38;10.05;;;;;;;;;;4934631;28;20333;-64
2022/03/25 02:01:14;;;;;;;23.30;11.10;;;;;;;;;;4933559;28;20038;-64
2022/03/25 02:03:39;;;;;;;23.60;9.82;;;;;;;;;;4932986;28;20327;-65
2022/03/25 02:06:04;;;;;;;25.02;10.00;;;;;;;;;;4933192;28;20046;-64
2022/03/25 02:08:30;;;;;;;22.33;9.77;;;;;;;;;;4932016;28;20461;-64
2022/03/25 02:10:56;;;;;;;27.80;10.95;;;;;;;;;;4933640;28;20524;-64
2022/03/25 02:13:22;;;;;;;23.27;10.57;;;;;;;;;;4933808;28;20053;-64
2022/03/25 02:15:48;;;;;;;25.23;10.23;;;;;;;;;;4934615;28;20030;-64
2022/03/25 02:18:15;;;;;;;26.95;10.90;;;;;;;;;;4933004;28;20334;-65
2022/03/25 02:20:41;;;;;;;29.63;10.85;;;;;;;;;;4932784;28;20438;-65
2022/03/25 02:23:08;;;;;;;21.17;10.70;;;;;;;;;;4933108;28;20022;-64
2022/03/25 02:25:33;;;;;;;23.92;10.88;;;;;;;;;;4933583;28;20330;-64
2022/03/25 02:28:00;;;;;;;27.67;9.73;;;;;;;;;;4932764;28;20319;-64
2022/03/25 02:30:27;;;;;;;27.15;10.32;;;;;;;;;;4933623;28;20457;-65
2022/03/25 02:32:53;;;;;;;28.98;10.98;;;;;;;;;;4931473;28;20465;-64
2022/03/25 02:35:18;;;;;;;21.05;9.50;;;;;;;;;;4932780;28;20137;-64
2022/03/25 02:37:44;;;;;;;22.50;10.52;;;;;;;;;;4932866;28;20434;-65
2022/03/25 02:40:09;;;;;;;24.27;9.82;;;;;;;;;;4931865;28;21043;-63
2022/03/25 02:42:35;;;;;;;26.13;11.90;;;;;;;;;;4932535;28;20436;-64
2022/03/25 02:45:00;;;;;;;23.15;10.23;;;;;;;;;;4933998;28;20425;-65
2022/03/25 02:47:25;;;;;;;27.40;10.02;;;;;;;;;;4933355;28;20388;-64
2022/03/25 02:49:51;;;;;;;21.35;9.45;;;;;;;;;;4933013;28;20168;-65
2022/03/25 02:52:17;;;;;;;25.35;10.55;;;;;;;;;;4932558;28;20437;-64
2022/03/25 02:54:42;;;;;;;24.50;10.18;;;;;;;;;;4932358;28;20427;-64
2022/03/25 02:57:07;;;;;;;20.55;9.00;;;;;;;;;;4931867;28;20295;-63
2022/03/25 02:59:33;;;;;;;23.02;10.68;;;;;;;;;;4931969;28;20406;-64
2022/03/25 03:01:58;;;;;;;21.77;10.82;;;;;;;;;;4932610;28;20460;-64
2022/03/25 03:04:23;;;;;;;22.05;10.43;;;;;;;;;;4932059;28;20500;-64
2022/03/25 03:06:49;;;;;;;19.00;9.55;;;;;;;;;;4933348;28;20450;-64
2022/03/25 03:09:14;;;;;;;25.15;10.88;;;;;;;;;;4931901;28;20117;-64
2022/03/25 03:11:40;;;;;;;26.15;11.05;;;;;;;;;;4931856;28;20401;-64
2022/03/25 03:14:05;;;;;;;23.45;10.93;;;;;;;;;;4931825;28;20082;-64
2022/03/25 03:16:31;;;;;;;25.70;11.25;;;;;;;;;;4931936;28;20342;-64
2022/03/25 03:18:57;;;;;;;20.13;9.57;;;;;;;;;;4930444;28;20497;-63
2022/03/25 03:21:24;;;;;;;22.67;10.23;;;;;;;;;;4931917;28;20343;-66
2022/03/25 03:23:51;;;;;;;26.17;10.63;;;;;;;;;;4931589;28;20405;-64
2022/03/25 03:26:20;;;;;;;29.45;11.93;;;;;;;;;;4931334;28;20318;-64
2022/03/25 03:28:46;;;;;;;24.55;11.57;;;;;;;;;;4931764;28;20030;-65
2022/03/25 03:31:11;;;;;;;28.27;11.27;;;;;;;;;;4931373;28;20049;-64
2022/03/25 03:33:37;;;;;;;26.30;11.40;;;;;;;;;;4932083;28;20488;-65
2022/03/25 03:36:03;;;;;;;24.48;11.35;;;;;;;;;;4931476;28;20416;-64
2022/03/25 03:38:28;;;;;;;28.10;11.02;;;;;;;;;;4932949;28;20318;-64
2022/03/25 03:40:53;;;;;;;21.52;9.73;;;;;;;;;;4931458;28;20425;-66
2022/03/25 03:43:19;;;;;;;25.17;10.32;;;;;;;;;;4931435;28;20536;-64
2022/03/25 03:45:44;;;;;;;22.27;10.05;;;;;;;;;;4931681;28;20349;-64
2022/03/25 03:48:09;;;;;;;20.30;10.55;;;;;;;;;;4932301;28;20058;-64
2022/03/25 03:50:35;;;;;;;22.25;10.63;;;;;;;;;;4931469;28;20565;-64
2022/03/25 03:53:00;;;;;;;27.00;10.35;;;;;;;;;;4930891;28;20034;-65
2022/03/25 03:55:25;;;;;;;25.55;10.38;;;;;;;;;;4931229;28;20323;-63
2022/03/25 03:57:51;;;;;;;20.73;9.93;;;;;;;;;;4930576;28;20596;-64
2022/03/25 04:00:16;;;;;;;22.98;10.88;;;;;;;;;;4931091;28;20442;-64
2022/03/25 04:02:44;;;;;;;24.02;9.43;;;;;;;;;;4930875;28;20345;-64
2022/03/25 04:05:13;;;;;;;21.85;10.57;;;;;;;;;;4930898;28;20113;-64
2022/03/25 04:07:48;;;;;;;20.55;10.35;;;;;;;;;;4932687;28;20030;-64
2022/03/25 04:10:15;;;;;;;20.48;10.18;;;;;;;;;;4931159;28;20342;-65
2022/03/25 04:12:41;;;;;;;25.55;11.15;;;;;;;;;;4931802;28;20337;-64
2022/03/25 04:15:09;;;;;;;19.73;9.48;;;;;;;;;;4930853;28;20362;-64
2022/03/25 04:17:36;;;;;;;23.80;10.35;;;;;;;;;;4931447;28;20509;-64
2022/03/25 04:20:01;;;;;;;24.17;10.43;;;;;;;;;;4931037;28;20513;-64
2022/03/25 04:22:26;;;;;;;23.48;9.68;;;;;;;;;;4930759;28;20330;-64
2022/03/25 04:24:53;;;;;;;20.70;10.07;;;;;;;;;;4931342;28;20050;-64
2022/03/25 04:27:18;;;;;;;26.15;10.57;;;;;;;;;;4930810;28;20397;-63
2022/03/25 04:29:44;;;;;;;25.50;9.65;;;;;;;;;;4931710;28;20376;-64
2022/03/25 04:32:09;;;;;;;20.05;9.07;;;;;;;;;;4930714;28;20361;-64
2022/03/25 04:34:34;;;;;;;23.25;10.70;;;;;;;;;;4930581;28;20498;-64
2022/03/25 04:37:00;;;;;;;25.25;11.25;;;;;;;;;;4930264;28;20514;-64
2022/03/25 04:39:25;;;;;;;20.38;10.27;;;;;;;;;;4930102;28;20441;-63
2022/03/25 04:41:52;;;;;;;18.63;9.43;;;;;;;;;;4930128;28;20457;-64
2022/03/25 04:44:18;;;;;;;23.65;10.10;;;;;;;;;;4930524;28;20457;-65
2022/03/25 04:46:43;;;;;;;26.45;9.40;;;;;;;;;;4930390;28;21664;-63
2022/03/25 04:49:09;;;;;;;22.45;9.95;;;;;;;;;;4931432;28;20434;-64
2022/03/25 04:51:34;;;;;;;25.10;10.45;;;;;;;;;;4930334;28;20542;-64
2022/03/25 04:54:00;;;;;;;22.75;10.15;;;;;;;;;;4931243;28;20460;-64
2022/03/25 04:56:25;;;;;;;24.08;9.13;;;;;;;;;;4930705;28;20500;-65
2022/03/25 04:58:50;;;;;;;23.25;9.88;;;;;;;;;;4930450;28;20361;-65
2022/03/25 05:01:16;;;;;;;26.25;10.10;;;;;;;;;;4928933;28;20574;-64
2022/03/25 05:03:41;;;;;;;27.30;11.60;;;;;;;;;;4931598;28;20044;-65
2022/03/25 05:06:07;;;;;;;22.33;9.90;;;;;;;;;;4930664;28;20038;-63
2022/03/25 05:08:32;;;;;;;22.35;9.82;;;;;;;;;;4930651;28;20430;-64
2022/03/25 05:10:57;;;;;;;24.55;9.77;;;;;;;;;;4930083;28;20500;-63
2022/03/25 05:13:23;;;;;;;25.23;9.95;;;;;;;;;;4929985;28;20026;-63
2022/03/25 05:15:48;;;;;;;23.20;10.25;;;;;;;;;;4929840;28;20426;-65
2022/03/25 05:18:14;;;;;;;27.92;9.77;;;;;;;;;;4930198;28;20399;-64
2022/03/25 05:20:40;;;;;;;19.80;9.85;;;;;;;;;;4929939;28;20453;-64
2022/03/25 05:23:06;;;;;;;25.40;10.38;;;;;;;;;;4930234;28;20038;-64
2022/03/25 05:25:31;;;;;;;22.08;9.82;;;;;;;;;;4929883;28;20478;-63
2022/03/25 05:27:58;;;;;;;24.17;10.23;;;;;;;;;;4929204;28;20433;-64
2022/03/25 05:30:25;;;;;;;30.52;11.52;;;;;;;;;;4930899;28;20410;-64
2022/03/25 05:32:51;;;;;;;27.20;10.20;;;;;;;;;;4929876;28;20034;-65
2022/03/25 05:35:19;;;;;;;24.65;10.40;;;;;;;;;;4930133;28;20026;-64
2022/03/25 05:37:44;;;;;;;25.73;10.75;;;;;;;;;;4930320;28;20442;-64
2022/03/25 05:40:10;;;;;;;29.30;11.35;;;;;;;;;;4929473;28;20454;-65
2022/03/25 05:42:36;;;;;;;24.85;10.65;;;;;;;;;;4931064;28;20468;-65
2022/03/25 05:45:03;;;;;;;23.02;10.45;;;;;;;;;;4933575;28;20418;-64
2022/03/25 05:47:28;;;;;;;27.35;12.00;;;;;;;;;;4933887;28;20399;-65
2022/03/25 05:49:54;;;;;;;26.98;11.68;;;;;;;;;;4933433;28;20420;-63
2022/03/25 05:52:19;;;;;;;26.85;10.75;;;;;;;;;;4933491;28;20434;-64
2022/03/25 05:54:45;;;;;;;29.02;11.30;;;;;;;;;;4934311;28;20561;-65
2022/03/25 05:57:10;;;;;;;31.48;13.82;;;;;;;;;;4933454;28;20533;-64
2022/03/25 05:59:36;;;;;;;27.25;10.98;;;;;;;;;;4933326;28;20504;-64
2022/03/25 06:02:01;;;;;;;27.25;11.68;;;;;;;;;;4933335;28;20366;-64
2022/03/25 06:04:27;;;;;;;32.78;12.20;;;;;;;;;;4933828;28;20346;-64
2022/03/25 06:06:53;;;;;;;29.27;11.90;;;;;;;;;;4933288;28;20031;-64
2022/03/25 06:09:19;;;;;;;29.05;12.82;;;;;;;;;;4933054;28;20038;-64
2022/03/25 06:11:44;;;;;;;27.75;11.93;;;;;;;;;;4934464;28;20468;-64
2022/03/25 06:14:10;;;;;;;35.35;12.82;;;;;;;;;;4933282;28;20089;-64
2022/03/25 06:16:35;;;;;;;24.58;11.30;;;;;;;;;;4933714;28;20403;-64
2022/03/25 06:19:01;;;;;;;35.22;13.20;;;;;;;;;;4933047;28;20405;-64
2022/03/25 06:21:26;;;;;;;30.40;12.55;;;;;;;;;;4932509;28;20046;-64
2022/03/25 06:23:52;;;;;;;34.33;13.55;;;;;;;;;;4933022;28;20406;-65
2022/03/25 06:26:17;;;;;;;37.97;13.18;;;;;;;;;;4932365;28;20066;-64
2022/03/25 06:28:42;;;;;;;32.50;11.93;;;;;;;;;;4933733;28;20464;-64
2022/03/25 06:31:08;;;;;;;33.75;13.85;;;;;;;;;;4932553;28;20382;-64
2022/03/25 06:33:34;;;;;;;26.85;11.35;;;;;;;;;;4933952;28;20508;-65
2022/03/25 06:36:00;;;;;;;32.13;13.10;;;;;;;;;;4932442;28;20322;-65
2022/03/25 06:38:26;;;;;;;35.38;13.65;;;;;;;;;;4932565;28;20400;-65
2022/03/25 06:40:51;;;;;;;29.80;12.20;;;;;;;;;;4932258;28;20086;-65
2022/03/25 06:43:16;;;;;;;28.95;13.93;;;;;;;;;;4934409;28;20385;-65
2022/03/25 06:45:41;;;;;;;31.25;13.07;;;;;;;;;;4932260;28;20449;-65
2022/03/25 06:48:07;;;;;;;34.65;14.65;;;;;;;;;;4932460;28;20035;-65
2022/03/25 06:50:32;;;;;;;38.25;13.98;;;;;;;;;;4932535;28;20026;-65
2022/03/25 06:53:01;;;;;;;37.15;13.85;;;;;;;;;;4932005;28;20030;-65
2022/03/25 06:55:26;;;;;;;32.72;13.05;;;;;;;;;;4934327;28;20054;-65
2022/03/25 06:57:52;;;;;;;31.15;14.23;;;;;;;;;;4932807;28;21638;-65
2022/03/25 07:00:19;;;;;;;35.28;14.25;;;;;;;;;;4932187;28;20433;-65
2022/03/25 07:02:45;;;;;;;30.23;13.30;;;;;;;;;;4932507;28;20361;-64
2022/03/25 07:05:12;;;;;;;36.55;14.60;;;;;;;;;;4932121;28;20362;-64
2022/03/25 07:07:40;;;;;;;36.10;12.93;;;;;;;;;;4932235;28;20513;-64
2022/03/25 07:10:07;;;;;;;31.60;13.25;;;;;;;;;;4931782;28;20426;-64
2022/03/25 07:12:33;;;;;;;35.47;14.95;;;;;;;;;;4932127;28;20457;-64
2022/03/25 07:14:58;;;;;;;32.08;14.07;;;;;;;;;;4932370;28;20508;-65
2022/03/25 07:17:24;;;;;;;34.40;13.98;;;;;;;;;;4932801;28;20381;-65
2022/03/25 07:19:49;;;;;;;37.53;14.38;;;;;;;;;;4932409;28;20454;-65
2022/03/25 07:22:15;;;;;;;33.70;13.93;;;;;;;;;;4931963;28;20414;-65
2022/03/25 07:24:40;;;;;;;37.60;13.85;;;;;;;;;;4932568;28;20133;-65
2022/03/25 07:27:05;;;;;;;31.02;13.45;;;;;;;;;;4931687;28;20469;-65
2022/03/25 07:29:31;;;;;;;32.63;14.27;;;;;;;;;;4932317;28;20469;-65
2022/03/25 07:31:56;;;;;;;36.47;14.52;;;;;;;;;;4931033;28;20495;-65
2022/03/25 07:34:21;;;;;;;33.13;13.52;;;;;;;;;;4931625;28;20385;-65
2022/03/25 07:36:47;;;;;;;30.92;13.45;;;;;;;;;;4931945;28;20053;-65
2022/03/25 07:39:12;;;;;;;31.92;12.52;;;;;;;;;;4931783;28;20397;-65
2022/03/25 07:41:37;;;;;;;28.60;12.25;;;;;;;;;;4932479;28;20402;-66
2022/03/25 07:44:03;;;;;;;34.38;14.02;;;;;;;;;;4932016;28;20057;-65
2022/03/25 07:46:28;;;;;;;27.77;11.95;;;;;;;;;;4930958;28;20472;-66
2022/03/25 07:48:54;;;;;;;31.38;12.50;;;;;;;;;;4933021;28;20346;-65
2022/03/25 07:51:19;;;;;;;31.10;12.35;;;;;;;;;;4931149;28;20026;-65
2022/03/25 07:53:45;;;;;;;29.73;13.20;;;;;;;;;;4931684;28;20453;-66
2022/03/25 07:56:11;;;;;;;28.98;12.65;;;;;;;;;;4931122;28;20564;-65
2022/03/25 07:58:36;;;;;;;26.55;11.60;;;;;;;;;;4931478;28;20084;-66
2022/03/25 08:01:02;;;;;;;28.27;11.82;;;;;;;;;;4930832;28;20513;-65
2022/03/25 08:03:27;;;;;;;30.50;12.85;;;;;;;;;;4931341;28;20460;-66
2022/03/25 08:05:54;;;;;;;23.67;11.25;;;;;;;;;;4930606;28;20357;-65
2022/03/25 08:08:20;;;;;;;26.48;12.18;;;;;;;;;;4931233;28;20453;-66
2022/03/25 08:10:46;;;;;;;29.90;12.02;;;;;;;;;;4930733;28;20315;-65
2022/03/25 08:13:11;;;;;;;27.17;11.50;;;;;;;;;;4931043;28;20500;-66
2022/03/25 08:15:37;;;;;;;29.30;12.68;;;;;;;;;;4931337;28;20450;-65
2022/03/25 08:18:13;;;;;;;34.08;12.07;;;;;;;;;;4930889;28;20427;-67
2022/03/25 08:20:41;;;;;;;23.85;11.57;;;;;;;;;;4930711;28;20034;-65
2022/03/25 08:23:09;;;;;;;29.77;11.50;;;;;;;;;;4931410;28;20038;-65
2022/03/25 08:28:19;;;;;;;22.98;11.20;;;;;;;;;;4933107;28;20457;-65
2022/03/25 08:30:46;;;;;;;27.80;11.18;;;;;;;;;;4930832;28;20373;-65
2022/03/25 08:33:11;;;;;;;26.90;10.90;;;;;;;;;;4931429;28;20396;-66
2022/03/25 08:35:37;;;;;;;26.50;11.27;;;;;;;;;;4931344;28;20349;-65
2022/03/25 08:38:03;;;;;;;24.25;11.52;;;;;;;;;;4931330;28;20357;-65
2022/03/25 08:40:30;;;;;;;26.48;11.45;;;;;;;;;;4930181;28;20373;-65
2022/03/25 08:42:55;;;;;;;28.90;11.68;;;;;;;;;;4930250;28;20394;-65
2022/03/25 08:45:21;;;;;;;23.50;10.48;;;;;;;;;;4930255;28;20077;-66
2022/03/25 08:47:48;;;;;;;25.13;10.77;;;;;;;;;;4930599;28;20469;-65
2022/03/25 08:50:14;;;;;;;26.77;11.05;;;;;;;;;;4930671;28;20176;-65
2022/03/25 08:52:40;;;;;;;31.88;11.52;;;;;;;;;;4931008;28;20062;-67
2022/03/25 08:55:06;;;;;;;25.77;10.52;;;;;;;;;;4930538;28;20057;-65
2022/03/25 08:57:32;;;;;;;22.10;10.88;;;;;;;;;;4930312;28;20116;-65
2022/03/25 08:59:57;;;;;;;21.63;9.60;;;;;;;;;;4930196;28;20508;-65
2022/03/25 09:02:23;;;;;;;26.15;11.00;;;;;;;;;;4930420;28;20442;-65
2022/03/25 09:04:48;;;;;;;23.80;10.10;;;;;;;;;;4931444;28;20385;-66
2022/03/25 09:07:14;;;;;;;22.05;9.65;;;;;;;;;;4930246;28;20526;-66
2022/03/25 09:09:40;;;;;;;27.35;10.35;;;;;;;;;;4930569;28;20326;-66
2022/03/25 09:12:06;;;;;;;26.85;10.65;;;;;;;;;;4930220;28;20373;-65
2022/03/25 09:14:31;;;;;;;22.83;9.65;;;;;;;;;;4930214;28;20125;-65
2022/03/25 09:16:56;;;;;;;25.48;10.45;;;;;;;;;;4932069;28;20370;-65
2022/03/25 09:19:21;;;;;;;28.50;10.38;;;;;;;;;;4935786;28;20046;-65
2022/03/25 09:21:47;;;;;;;28.35;10.25;;;;;;;;;;4934064;28;20529;-65
2022/03/25 09:24:12;;;;;;;18.17;10.00;;;;;;;;;;4932959;28;20022;-65
2022/03/25 09:26:38;;;;;;;22.63;9.77;;;;;;;;;;4934098;28;20434;-65
2022/03/25 09:29:03;;;;;;;22.60;9.85;;;;;;;;;;4933982;28;20300;-66
2022/03/25 09:31:29;;;;;;;23.75;9.85;;;;;;;;;;4933478;28;20440;-65
2022/03/25 09:35:08;;;;;;;26.70;9.60;;;;;;;;;;4933964;28;20073;-66
2022/03/25 09:36:39;;;;;;;18.88;9.45;;;;;;;;;;4933948;28;20484;-67
2022/03/25 09:39:04;;;;;;;24.38;9.45;;;;;;;;;;4933722;28;20588;-66
2022/03/25 09:41:31;;;;;;;25.85;10.10;;;;;;;;;;4934175;28;20433;-66
2022/03/25 09:43:56;;;;;;;20.50;9.88;;;;;;;;;;4933301;28;20397;-65
2022/03/25 09:46:21;;;;;;;24.08;9.45;;;;;;;;;;4935271;28;20397;-65
2022/03/25 09:48:47;;;;;;;17.55;8.80;;;;;;;;;;4932004;28;20450;-65
2022/03/25 09:51:13;;;;;;;20.42;8.52;;;;;;;;;;4933720;28;20449;-65
2022/03/25 09:53:39;;;;;;;19.95;8.00;;;;;;;;;;4933564;28;20415;-65
2022/03/25 09:56:04;;;;;;;19.70;8.70;;;;;;;;;;4932132;28;20327;-65
2022/03/25 09:58:30;;;;;;;20.52;8.60;;;;;;;;;;4931236;28;20093;-65
2022/03/25 10:00:55;;;;;;;21.60;7.85;;;;;;;;;;4933322;28;20437;-66
2022/03/25 10:03:22;;;;;;;17.08;7.45;;;;;;;;;;4931797;28;20440;-66
2022/03/25 10:05:58;;;;;;;18.27;8.82;;;;;;;;;;4933431;28;20456;-66
2022/03/25 10:08:31;;;;;;;19.20;7.53;;;;;;;;;;4933348;28;20102;-66
2022/03/25 10:11:16;;;;;;;22.35;9.00;;;;;;;;;;4933484;28;20403;-65
2022/03/25 10:13:42;;;;;;;19.92;8.48;;;;;;;;;;4933912;28;20528;-65
2022/03/25 10:16:25;;;;;;;23.30;8.75;;;;;;;;;;4932824;28;20349;-65
2022/03/25 10:18:54;;;;;;;19.70;8.85;;;;;;;;;;4933022;28;20330;-66
2022/03/25 10:21:19;;;;;;;21.95;8.82;;;;;;;;;;4932976;28;20104;-66
2022/03/25 10:23:45;;;;;;;15.10;7.40;;;;;;;;;;4933589;28;20034;-66
2022/03/25 10:26:10;;;;;;;15.68;8.05;;;;;;;;;;4932845;28;20426;-66
2022/03/25 10:28:40;;;;;;;18.92;8.77;;;;;;;;;;4932477;28;20528;-65
2022/03/25 10:31:08;;;;;;;18.20;7.75;;;;;;;;;;4932750;28;20077;-65
2022/03/25 10:33:36;;;;;;;20.65;8.90;;;;;;;;;;4932586;28;20346;-65
2022/03/25 10:36:07;;;;;;;17.75;8.27;;;;;;;;;;4933845;28;20423;-65
2022/03/25 10:38:47;;;;;;;17.70;8.52;;;;;;;;;;4933559;28;20026;-65
2022/03/25 10:41:18;;;;;;;17.80;7.47;;;;;;;;;;4932827;28;20112;-65
2022/03/25 10:43:59;;;;;;;20.50;8.35;;;;;;;;;;4932353;28;20457;-65
2022/03/25 10:46:31;;;;;;;15.55;7.47;;;;;;;;;;4932702;28;20362;-66
2022/03/25 10:48:58;;;;;;;19.30;7.68;;;;;;;;;;4933258;28;20422;-66
2022/03/25 10:51:24;;;;;;;16.05;8.13;;;;;;;;;;4932514;28;20381;-65
2022/03/25 10:53:56;;;;;;;21.27;8.45;;;;;;;;;;4934159;28;20434;-66
2022/03/25 10:56:22;;;;;;;17.33;6.78;;;;;;;;;;4930657;28;20359;-66
2022/03/25 10:58:55;;;;;;;17.30;7.03;;;;;;;;;;4932354;28;20369;-66
2022/03/25 11:01:21;;;;;;;18.20;7.80;;;;;;;;;;4932992;28;20430;-65
2022/03/25 11:03:50;;;;;;;18.45;7.90;;;;;;;;;;4933402;28;20430;-65
2022/03/25 11:06:18;;;;;;;15.15;7.40;;;;;;;;;;4932462;28;20422;-65
2022/03/25 11:08:45;;;;;;;15.75;8.27;;;;;;;;;;4931012;28;20338;-66
2022/03/25 11:11:12;;;;;;;14.90;7.47;;;;;;;;;;4930737;28;20401;-65
2022/03/25 11:13:38;;;;;;;17.05;7.13;;;;;;;;;;4931720;28;20031;-65
2022/03/25 11:16:07;;;;;;;15.52;6.80;;;;;;;;;;4932255;28;20473;-65
2022/03/25 11:18:34;;;;;;;15.30;7.93;;;;;;;;;;4931596;28;20057;-66
2022/03/25 11:21:00;;;;;;;14.50;7.05;;;;;;;;;;4931994;28;20303;-65
2022/03/25 11:23:30;;;;;;;16.33;6.82;;;;;;;;;;4931854;28;20450;-65
2022/03/25 11:25:56;;;;;;;18.60;7.63;;;;;;;;;;4932657;28;20022;-66
2022/03/25 11:28:32;;;;;;;17.85;7.22;;;;;;;;;;4930211;28;20500;-65
2022/03/25 11:31:04;;;;;;;15.85;6.88;;;;;;;;;;4930714;28;20447;-66
2022/03/25 11:33:29;;;;;;;18.52;8.00;;;;;;;;;;4931389;28;20516;-66
2022/03/25 11:36:14;;;;;;;16.10;6.95;;;;;;;;;;4931491;28;20378;-65
2022/03/25 11:38:40;;;;;;;14.73;7.28;;;;;;;;;;4930977;28;20346;-66
2022/03/25 11:41:26;;;;;;;16.58;7.90;;;;;;;;;;4930524;28;20394;-66
2022/03/25 11:44:16;;;;;;;16.40;6.93;;;;;;;;;;4933206;28;20065;-65
2022/03/25 11:47:00;;;;;;;18.65;7.00;;;;;;;;;;4931705;28;20496;-66
2022/03/25 11:49:26;;;;;;;13.93;6.65;;;;;;;;;;4931580;28;20501;-66
2022/03/25 11:51:52;;;;;;;15.15;6.35;;;;;;;;;;4930953;28;20362;-66
2022/03/25 11:54:40;;;;;;;20.17;7.20;;;;;;;;;;4931838;28;20022;-66
2022/03/25 11:57:11;;;;;;;18.42;6.63;;;;;;;;;;4931273;28;20457;-66
2022/03/25 12:00:05;;;;;;;16.77;6.85;;;;;;;;;;4929299;28;20405;-66
2022/03/25 12:02:36;;;;;;;16.85;6.88;;;;;;;;;;4929585;28;20042;-65
2022/03/25 12:05:04;;;;;;;18.08;6.22;;;;;;;;;;4931206;28;20093;-66
2022/03/25 12:07:29;;;;;;;15.07;6.72;;;;;;;;;;4930929;28;20057;-65
2022/03/25 12:09:55;;;;;;;19.70;6.82;;;;;;;;;;4931333;28;20426;-65
2022/03/25 12:12:57;;;;;;;14.65;6.50;;;;;;;;;;4930718;28;20528;-65
2022/03/25 12:15:39;;;;;;;15.20;6.40;;;;;;;;;;4930759;28;20034;-65
2022/03/25 12:18:47;;;;;;;14.27;6.03;;;;;;;;;;4930782;28;20300;-65
2022/03/25 12:21:21;;;;;;;14.38;5.93;;;;;;;;;;4930544;28;20488;-66
2022/03/25 12:23:58;;;;;;;14.40;6.50;;;;;;;;;;4931023;28;20132;-65
2022/03/25 12:26:30;;;;;;;13.50;6.45;;;;;;;;;;4932594;28;20393;-66
2022/03/25 12:28:55;;;;;;;13.88;6.13;;;;;;;;;;4931465;28;20410;-65
2022/03/25 12:31:21;;;;;;;12.20;6.32;;;;;;;;;;4930959;28;20377;-65
2022/03/25 12:33:57;;;;;;;13.70;5.80;;;;;;;;;;4928950;28;20450;-65
2022/03/25 12:36:24;;;;;;;11.02;5.88;;;;;;;;;;4930980;28;20508;-65
2022/03/25 12:38:53;;;;;;;15.32;6.00;;;;;;;;;;4929912;28;20497;-65
2022/03/25 12:41:29;;;;;;;16.52;5.78;;;;;;;;;;4931510;28;20413;-65
2022/03/25 12:43:59;;;;;;;11.10;5.75;;;;;;;;;;4930532;28;20331;-66
2022/03/25 12:46:25;;;;;;;11.95;5.72;;;;;;;;;;4931069;28;20053;-67
2022/03/25 12:48:50;;;;;;;12.23;5.70;;;;;;;;;;4931449;28;20437;-66
2022/03/25 12:51:20;;;;;;;11.77;5.00;;;;;;;;;;4930413;28;20422;-65
2022/03/25 12:53:47;;;;;;;11.32;5.55;;;;;;;;;;4930387;28;20472;-65
2022/03/25 12:56:13;;;;;;;12.55;6.05;;;;;;;;;;4930811;28;20438;-65
2022/03/25 12:58:40;;;;;;;11.45;5.90;;;;;;;;;;4930269;28;20339;-65
2022/03/25 13:01:05;;;;;;;12.00;5.57;;;;;;;;;;4930353;28;20327;-65
2022/03/25 13:03:32;;;;;;;12.77;5.72;;;;;;;;;;4930314;28;20057;-65
2022/03/25 13:05:57;;;;;;;11.23;5.72;;;;;;;;;;4872875;28;20565;-65
2022/03/25 13:08:23;;;;;;;10.75;5.40;;;;;;;;;;4926167;28;20355;-65
2022/03/25 13:10:57;;;;;;;11.95;6.88;;;;;;;;;;4930067;28;20389;-65
2022/03/25 13:13:22;;;;;;;13.10;5.70;;;;;;;;;;4930613;28;20478;-65
2022/03/25 13:15:47;;;;;;;10.90;5.05;;;;;;;;;;4931096;28;20406;-65
2022/03/25 13:18:15;;;;;;;11.77;4.75;;;;;;;;;;4931136;28;20022;-65
2022/03/25 13:20:44;;;;;;;11.23;4.75;;;;;;;;;;4930370;28;20429;-65
2022/03/25 13:23:12;;;;;;;9.02;4.70;;;;;;;;;;4930293;28;20410;-65
2022/03/25 13:25:39;;;;;;;10.07;4.22;;;;;;;;;;4930149;28;20381;-65
2022/03/25 13:28:09;;;;;;;10.15;4.75;;;;;;;;;;4929947;28;20520;-65
2022/03/25 13:30:37;;;;;;;11.60;4.85;;;;;;;;;;4929968;28;20350;-65
2022/03/25 13:33:06;;;;;;;9.38;5.20;;;;;;;;;;4932319;28;20366;-65
2022/03/25 13:35:51;;;;;;;9.90;4.60;;;;;;;;;;4930087;28;20039;-65
2022/03/25 13:38:22;;;;;;;10.65;4.43;;;;;;;;;;4929200;28;20425;-65
2022/03/25 13:40:50;;;;;;;11.25;5.13;;;;;;;;;;4929441;28;20320;-65
2022/03/25 13:43:18;;;;;;;11.57;5.10;;;;;;;;;;4930325;28;20469;-65
2022/03/25 13:46:05;;;;;;;11.20;4.60;;;;;;;;;;4929859;28;20049;-64
2022/03/25 13:48:41;;;;;;;7.10;3.95;;;;;;;;;;4929897;28;20330;-64
2022/03/25 13:51:26;;;;;;;11.35;5.00;;;;;;;;;;4930094;28;20353;-64
2022/03/25 13:54:04;;;;;;;8.80;4.10;;;;;;;;;;4929420;28;20375;-65
2022/03/25 13:56:48;;;;;;;11.17;5.17;;;;;;;;;;4929923;28;20398;-65
2022/03/25 13:59:36;;;;;;;8.32;4.40;;;;;;;;;;4930206;28;20342;-65
2022/03/25 14:02:03;;;;;;;10.32;4.18;;;;;;;;;;4929438;28;20100;-65
2022/03/25 14:04:30;;;;;;;6.40;4.03;;;;;;;;;;4932259;28;20405;-65
2022/03/25 14:06:58;;;;;;;7.38;3.72;;;;;;;;;;4933274;28;20350;-65
2022/03/25 14:12:30;;;;;;;7.68;3.97;;;;;;;;;;4933614;28;20515;-65
2022/03/25 14:15:01;;;;;;;8.75;4.15;;;;;;;;;;4932996;28;20414;-65
2022/03/25 14:17:31;;;;;;;9.38;3.90;;;;;;;;;;4932674;28;20038;-65
2022/03/25 14:20:05;;;;;;;12.30;5.00;;;;;;;;;;4933333;28;20353;-65
2022/03/25 14:22:31;;;;;;;6.47;3.88;;;;;;;;;;4933198;28;20389;-66
2022/03/25 14:24:56;;;;;;;9.32;4.68;;;;;;;;;;4933049;28;20365;-65
2022/03/25 14:27:23;;;;;;;10.73;3.92;;;;;;;;;;4932978;28;20450;-65
2022/03/25 14:29:49;;;;;;;8.10;4.07;;;;;;;;;;4932771;28;20475;-65
2022/03/25 14:32:14;;;;;;;8.80;3.80;;;;;;;;;;4933518;28;20410;-65